Time;durP1;ratioP1;P1;durP2;ratioP2;P2;SDS_P1;SDS_P2;PMS_P1;PMS_P2;Temp;Humidity;BMP_temperature;BMP_pressure;BME280_temperature;BME280_humidity;BME280_pressure;Samples;Min_cycle;Max_cycle;Signal;HPM_P1;HPM_P2
2021/12/25 00:01:14;;;;;;;11.43;8.05;;;7.90;84.30;;;;;;5036772;28;20041;-67
2021/12/25 00:03:40;;;;;;;10.75;8.20;;;7.90;84.30;;;;;;5036432;28;20056;-67
2021/12/25 00:06:07;;;;;;;10.65;8.23;;;7.90;84.30;;;;;;5035216;28;20036;-67
2021/12/25 00:08:32;;;;;;;10.77;7.78;;;7.90;84.30;;;;;;5036230;28;20036;-66
2021/12/25 00:10:59;;;;;;;12.02;8.23;;;7.90;84.30;;;;;;5029768;28;20475;-67
2021/12/25 00:13:25;;;;;;;10.38;7.28;;;7.90;84.30;;;;;;5036564;28;20033;-67
2021/12/25 00:15:52;;;;;;;9.18;7.35;;;7.90;84.30;;;;;;5035529;28;20088;-66
2021/12/25 00:18:18;;;;;;;8.65;6.97;;;7.90;84.30;;;;;;5035926;28;20413;-67
2021/12/25 00:20:45;;;;;;;10.07;6.80;;;7.90;84.50;;;;;;5037096;28;20036;-67
2021/12/25 00:23:11;;;;;;;9.20;6.68;;;7.90;84.50;;;;;;5036556;28;20065;-67
2021/12/25 00:25:42;;;;;;;10.00;6.13;;;7.90;84.50;;;;;;5035537;28;20440;-67
2021/12/25 00:28:35;;;;;;;8.10;6.60;;;7.90;84.60;;;;;;5036843;28;20063;-66
2021/12/25 00:36:10;;;;;;;10.20;6.22;;;7.90;84.60;;;;;;5035905;28;20033;-67
2021/12/25 00:38:37;;;;;;;9.35;5.95;;;7.90;84.70;;;;;;5036005;28;20032;-67
2021/12/25 00:41:06;;;;;;;10.20;6.63;;;7.90;84.80;;;;;;5033973;28;20064;-66
2021/12/25 00:43:32;;;;;;;9.00;6.10;;;8.00;85.20;;;;;;5035939;28;20040;-67
2021/12/25 00:45:58;;;;;;;8.18;6.43;;;7.90;85.20;;;;;;5036071;28;20045;-67
2021/12/25 00:48:24;;;;;;;9.13;6.60;;;7.90;85.30;;;;;;5035742;28;20116;-65
2021/12/25 00:50:49;;;;;;;9.02;6.43;;;7.90;85.50;;;;;;5036359;28;20416;-67
2021/12/25 00:53:15;;;;;;;11.27;7.43;;;7.90;85.60;;;;;;5037762;28;20035;-67
2021/12/25 00:55:41;;;;;;;12.93;8.60;;;7.90;85.50;;;;;;5034622;28;20044;-67
2021/12/25 00:58:07;;;;;;;12.35;9.32;;;7.90;85.50;;;;;;5036808;28;20041;-68
2021/12/25 01:00:32;;;;;;;12.80;9.38;;;7.90;85.30;;;;;;5033854;28;20044;-67
2021/12/25 01:02:58;;;;;;;14.20;9.65;;;7.80;86.00;;;;;;5031990;28;20427;-66
2021/12/25 01:05:24;;;;;;;13.82;9.60;;;7.80;85.10;;;;;;5033383;28;20030;-66
2021/12/25 01:07:50;;;;;;;12.05;9.43;;;7.80;85.10;;;;;;5037522;28;20037;-67
2021/12/25 01:10:18;;;;;;;14.43;9.25;;;7.80;85.00;;;;;;5034042;28;20076;-67
2021/12/25 01:15:22;;;;;;;12.90;9.52;;;7.80;84.80;;;;;;5036629;28;20033;-67
2021/12/25 01:26:10;;;;;;;11.75;8.85;;;7.80;84.70;;;;;;5034411;28;20029;-67
2021/12/25 01:38:57;;;;;;;15.00;10.18;;;7.80;84.40;;;;;;5031679;28;20044;-67
2021/12/25 01:49:39;;;;;;;13.25;10.00;;;7.70;84.50;;;;;;5031362;28;20073;-66
2021/12/25 01:52:06;;;;;;;14.93;10.55;;;7.80;84.50;;;;;;5020544;28;20083;-67
2021/12/25 01:54:32;;;;;;;15.50;10.63;;;7.70;84.30;;;;;;5022464;28;20098;-65
2021/12/25 01:56:58;;;;;;;15.82;10.20;;;7.70;85.10;;;;;;5024816;28;20044;-66
2021/12/25 01:59:24;;;;;;;13.75;10.45;;;7.70;84.30;;;;;;5023931;28;20064;-67
2021/12/25 02:01:50;;;;;;;15.05;10.23;;;7.70;84.30;;;;;;5017277;28;20125;-66
2021/12/25 02:04:16;;;;;;;14.57;10.20;;;7.70;84.20;;;;;;5024020;28;20033;-66
2021/12/25 02:06:42;;;;;;;16.35;11.35;;;7.70;84.20;;;;;;5024577;28;20071;-66
2021/12/25 02:09:07;;;;;;;14.80;10.82;;;7.70;84.20;;;;;;5022548;28;20505;-67
2021/12/25 02:11:33;;;;;;;16.92;11.77;;;7.70;84.20;;;;;;5025124;28;20033;-67
2021/12/25 02:13:59;;;;;;;15.88;11.30;;;7.60;84.10;;;;;;5029992;28;20082;-66
2021/12/25 02:16:37;;;;;;;16.83;10.65;;;7.60;84.10;;;;;;5027189;28;20034;-66
2021/12/25 02:21:40;;;;;;;14.77;10.75;;;7.50;84.20;;;;;;5022374;28;20041;-66
2021/12/25 02:24:11;;;;;;;12.52;9.82;;;7.50;84.30;;;;;;5022374;28;20405;-67
2021/12/25 02:26:40;;;;;;;15.00;10.80;;;7.50;84.30;;;;;;5025791;28;20751;-67
2021/12/25 02:29:06;;;;;;;14.05;10.10;;;7.50;84.20;;;;;;5025256;28;20156;-66
2021/12/25 02:31:32;;;;;;;14.10;10.50;;;7.50;84.30;;;;;;5023975;28;20212;-66
2021/12/25 02:33:58;;;;;;;13.93;10.00;;;7.40;84.40;;;;;;5026462;28;20034;-66
2021/12/25 02:36:24;;;;;;;14.90;10.27;;;7.40;84.50;;;;;;5025929;28;20060;-66
2021/12/25 02:38:51;;;;;;;11.68;9.00;;;7.40;84.80;;;;;;5022079;28;20026;-66
2021/12/25 02:41:17;;;;;;;14.82;10.05;;;7.40;84.70;;;;;;5027975;28;20037;-66
2021/12/25 02:43:45;;;;;;;15.32;10.73;;;7.40;84.80;;;;;;5028123;28;20033;-67
2021/12/25 02:46:11;;;;;;;15.77;11.57;;;7.40;84.70;;;;;;5032456;28;20094;-67
2021/12/25 02:48:37;;;;;;;16.02;11.48;;;7.40;85.50;;;;;;5024666;28;20044;-67
2021/12/25 02:51:05;;;;;;;15.55;11.63;;;7.30;84.50;;;;;;5027213;28;20040;-67
2021/12/25 02:53:30;;;;;;;15.00;11.48;;;7.40;84.50;;;;;;5033639;28;20056;-66
2021/12/25 02:55:56;;;;;;;15.10;11.75;;;7.40;84.50;;;;;;5029121;28;20072;-64
2021/12/25 02:58:23;;;;;;;16.35;12.05;;;7.40;84.30;;;;;;5029787;28;20069;-66
2021/12/25 03:00:57;;;;;;;15.25;11.38;;;7.30;84.30;;;;;;5038477;28;20092;-67
2021/12/25 03:03:23;;;;;;;14.85;11.07;;;7.30;84.50;;;;;;5027521;28;20049;-66
2021/12/25 03:05:48;;;;;;;19.05;11.85;;;7.30;84.50;;;;;;5028476;28;20057;-66
2021/12/25 03:08:15;;;;;;;18.27;12.75;;;7.20;84.30;;;;;;5031437;28;20040;-66
2021/12/25 03:10:41;;;;;;;17.90;13.32;;;7.20;84.10;;;;;;5028469;28;20496;-66
2021/12/25 03:15:51;;;;;;;20.75;14.27;;;7.20;84.00;;;;;;5028963;28;20532;-66
2021/12/25 03:18:27;;;;;;;19.50;13.77;;;7.10;84.10;;;;;;5024621;28;20516;-66
2021/12/25 03:20:56;;;;;;;17.45;12.77;;;7.10;84.30;;;;;;5024574;28;20386;-67
2021/12/25 03:23:23;;;;;;;18.10;12.80;;;7.00;85.00;;;;;;5026147;28;20041;-66
2021/12/25 03:25:51;;;;;;;23.25;13.52;;;7.00;84.30;;;;;;5029572;28;20069;-66
2021/12/25 03:28:21;;;;;;;18.95;13.55;;;7.00;84.30;;;;;;5031749;28;20420;-64
2021/12/25 03:30:46;;;;;;;20.17;13.93;;;6.90;84.10;;;;;;5027217;28;20060;-67
2021/12/25 03:33:16;;;;;;;18.48;13.57;;;7.00;84.20;;;;;;5036390;28;20068;-66
2021/12/25 03:35:42;;;;;;;18.00;12.75;;;6.90;84.20;;;;;;5037408;28;20045;-67
2021/12/25 03:38:11;;;;;;;18.17;12.73;;;6.90;84.30;;;;;;5035436;28;20041;-67
2021/12/25 03:40:38;;;;;;;18.58;12.75;;;6.90;84.30;;;;;;5036568;28;20540;-66
2021/12/25 03:43:04;;;;;;;19.25;12.95;;;6.90;84.30;;;;;;5036863;28;20060;-67
2021/12/25 03:45:32;;;;;;;17.27;12.20;;;6.90;84.10;;;;;;5035411;28;20024;-67
2021/12/25 03:58:48;;;;;;;18.02;12.10;;;6.80;83.70;;;;;;5027790;28;20634;-66
2021/12/25 04:06:46;;;;;;;18.02;12.63;;;6.80;83.50;;;;;;5024901;28;20689;-66
2021/12/25 04:09:30;;;;;;;17.42;12.32;;;6.70;83.60;;;;;;5031871;28;20412;-67
2021/12/25 04:11:59;;;;;;;18.50;13.02;;;6.70;84.00;;;;;;5024131;28;20042;-66
2021/12/25 04:14:25;;;;;;;17.63;13.02;;;6.60;84.00;;;;;;5034645;28;20037;-65
2021/12/25 04:16:51;;;;;;;18.77;13.43;;;6.70;84.10;;;;;;5021787;28;20029;-66
2021/12/25 04:19:17;;;;;;;19.10;13.07;;;6.60;84.00;;;;;;5025209;28;20033;-67
2021/12/25 04:24:23;;;;;;;18.65;11.88;;;6.60;84.00;;;;;;5031504;28;20033;-67
2021/12/25 04:26:50;;;;;;;17.20;12.27;;;6.60;84.10;;;;;;5029152;28;20041;-66
2021/12/25 05:04:48;;;;;;;13.65;9.48;;;6.50;84.40;;;;;;5011523;28;20034;-66
2021/12/25 05:07:04;;;;;;;14.27;11.00;;;6.50;84.30;;;;;;5026265;28;20073;-66
2021/12/25 05:09:30;;;;;;;14.25;10.68;;;6.50;84.10;;;;;;5033270;28;20095;-66
2021/12/25 05:11:56;;;;;;;13.45;9.90;;;6.50;84.10;;;;;;5023451;28;21604;-66
2021/12/25 05:14:21;;;;;;;15.40;11.10;;;6.50;84.20;;;;;;5025114;28;20860;-67
2021/12/25 05:16:47;;;;;;;16.48;11.57;;;6.50;84.20;;;;;;5032837;28;20032;-67
2021/12/25 05:19:13;;;;;;;15.18;10.80;;;6.50;84.20;;;;;;5024374;28;20040;-66
2021/12/25 05:21:38;;;;;;;14.40;10.90;;;6.50;84.40;;;;;;5024524;28;20033;-67
2021/12/25 05:24:05;;;;;;;15.32;11.00;;;6.50;84.30;;;;;;5026394;28;20075;-66
2021/12/25 05:26:32;;;;;;;15.10;10.57;;;6.50;84.20;;;;;;5028003;28;20657;-66
2021/12/25 05:29:01;;;;;;;16.23;10.60;;;6.50;84.30;;;;;;5031330;28;20520;-66
2021/12/25 05:31:29;;;;;;;14.95;10.63;;;6.50;84.40;;;;;;5028798;28;20030;-66
2021/12/25 05:33:56;;;;;;;14.63;9.68;;;6.40;84.40;;;;;;5034000;28;20038;-66
2021/12/25 05:36:24;;;;;;;12.65;9.65;;;6.40;84.50;;;;;;5029148;28;20029;-66
2021/12/25 05:38:50;;;;;;;11.82;8.48;;;6.50;84.50;;;;;;5032517;28;20030;-66
2021/12/25 05:41:16;;;;;;;12.57;8.20;;;6.50;84.60;;;;;;5024736;28;20045;-66
2021/12/25 05:43:43;;;;;;;12.32;8.35;;;6.50;84.60;;;;;;5025194;28;20048;-67
2021/12/25 05:46:09;;;;;;;11.05;7.68;;;6.40;84.70;;;;;;5029139;28;20041;-67
2021/12/25 05:48:35;;;;;;;14.82;10.02;;;6.50;84.90;;;;;;5024566;28;20869;-66
2021/12/25 05:51:05;;;;;;;15.80;11.07;;;6.40;84.90;;;;;;5027950;28;20496;-66
2021/12/25 05:53:31;;;;;;;14.65;10.07;;;6.50;84.90;;;;;;5023111;28;20676;-66
2021/12/25 05:55:57;;;;;;;13.50;8.13;;;6.50;84.90;;;;;;5022884;28;20044;-66
2021/12/25 05:58:23;;;;;;;10.23;7.53;;;6.50;84.80;;;;;;5021831;28;20065;-65
2021/12/25 06:00:49;;;;;;;9.88;7.25;;;6.50;85.00;;;;;;5025951;28;20161;-66
2021/12/25 06:03:15;;;;;;;13.27;9.38;;;6.50;85.10;;;;;;5028674;28;20156;-66
2021/12/25 06:05:40;;;;;;;14.90;10.52;;;6.50;84.90;;;;;;5029575;28;20038;-68
2021/12/25 06:08:06;;;;;;;13.73;9.95;;;6.50;84.70;;;;;;5031958;28;20128;-65
2021/12/25 06:10:32;;;;;;;13.25;9.18;;;6.60;84.60;;;;;;5026980;28;20044;-66
2021/12/25 06:12:59;;;;;;;11.88;8.23;;;6.50;84.60;;;;;;5027504;28;20112;-65
2021/12/25 06:15:28;;;;;;;11.73;8.38;;;6.50;84.70;;;;;;5024128;28;20037;-64
2021/12/25 06:17:54;;;;;;;13.55;9.77;;;6.50;84.80;;;;;;5024454;28;20029;-66
2021/12/25 06:20:20;;;;;;;14.55;10.73;;;6.50;84.70;;;;;;5022078;28;20061;-67
2021/12/25 06:22:46;;;;;;;14.15;10.05;;;6.50;84.70;;;;;;5024010;28;20960;-66
2021/12/25 06:25:12;;;;;;;14.48;10.48;;;6.50;84.50;;;;;;5030193;28;20025;-67
2021/12/25 06:27:38;;;;;;;16.13;11.23;;;6.50;84.50;;;;;;5030805;28;20060;-66
2021/12/25 06:30:06;;;;;;;15.50;11.23;;;6.60;84.60;;;;;;5031414;28;20703;-66
2021/12/25 06:32:33;;;;;;;15.23;9.90;;;6.50;84.50;;;;;;5023716;28;20068;-66
2021/12/25 06:34:58;;;;;;;15.40;9.80;;;6.50;84.60;;;;;;5024399;28;20037;-66
2021/12/25 06:37:25;;;;;;;11.68;8.23;;;6.50;84.60;;;;;;5023154;28;20049;-66
2021/12/25 06:39:51;;;;;;;12.68;8.70;;;6.60;84.70;;;;;;5022609;28;20040;-66
2021/12/25 06:42:16;;;;;;;9.82;6.90;;;6.50;84.80;;;;;;5023918;28;20030;-65
2021/12/25 06:44:43;;;;;;;12.18;7.50;;;6.60;85.10;;;;;;5022127;28;20057;-65
2021/12/25 06:47:09;;;;;;;11.55;7.20;;;6.60;85.20;;;;;;5025563;28;20033;-66
2021/12/25 06:49:34;;;;;;;9.15;6.80;;;6.60;85.40;;;;;;5026227;28;20033;-66
2021/12/25 06:52:00;;;;;;;9.10;6.88;;;6.60;85.60;;;;;;5026140;28;20029;-66
2021/12/25 06:54:26;;;;;;;9.45;6.75;;;6.60;85.60;;;;;;5031640;28;20029;-67
2021/12/25 06:56:51;;;;;;;9.85;6.65;;;6.60;85.60;;;;;;5028226;28;20030;-67
2021/12/25 06:59:17;;;;;;;9.90;6.63;;;6.70;85.70;;;;;;5028506;28;20033;-66
2021/12/25 07:01:43;;;;;;;10.82;7.05;;;6.70;85.70;;;;;;5024646;28;20036;-65
2021/12/25 07:04:10;;;;;;;11.25;7.07;;;6.70;85.60;;;;;;5026317;28;20040;-66
2021/12/25 07:06:36;;;;;;;7.95;6.35;;;6.70;85.50;;;;;;5028917;28;20037;-67
2021/12/25 07:09:05;;;;;;;8.02;6.10;;;6.70;85.60;;;;;;5027788;28;20025;-67
2021/12/25 07:11:31;;;;;;;13.80;10.13;;;6.80;85.80;;;;;;5024147;28;20681;-67
2021/12/25 07:13:59;;;;;;;14.50;10.20;;;6.80;85.70;;;;;;5027441;28;20091;-67
2021/12/25 07:16:25;;;;;;;15.73;11.00;;;6.70;85.50;;;;;;5024708;28;20087;-66
2021/12/25 07:18:51;;;;;;;20.38;13.88;;;6.80;85.50;;;;;;5023235;28;20042;-66
2021/12/25 07:21:16;;;;;;;21.80;16.23;;;6.80;85.50;;;;;;5025339;28;20134;-66
2021/12/25 07:23:42;;;;;;;28.58;21.20;;;6.80;85.40;;;;;;5015775;28;20033;-66
2021/12/25 07:26:07;;;;;;;17.95;12.30;;;6.80;85.50;;;;;;5004875;28;20053;-66
2021/12/25 07:28:34;;;;;;;20.02;13.57;;;6.80;85.60;;;;;;5001226;28;22508;-65
2021/12/25 07:31:00;;;;;;;16.50;11.65;;;6.80;85.70;;;;;;5006109;28;20540;-66
2021/12/25 07:33:27;;;;;;;13.88;10.02;;;6.80;85.70;;;;;;5003365;28;20409;-66
2021/12/25 07:35:54;;;;;;;12.70;8.73;;;6.90;85.80;;;;;;5012834;28;20034;-66
2021/12/25 07:38:20;;;;;;;14.70;9.18;;;6.90;85.90;;;;;;5022567;28;20038;-67
2021/12/25 07:40:46;;;;;;;10.75;7.75;;;6.90;85.90;;;;;;5013607;28;20041;-64
2021/12/25 07:43:12;;;;;;;11.57;8.48;;;6.90;85.80;;;;;;5006575;28;20125;-65
2021/12/25 07:45:38;;;;;;;13.60;8.63;;;6.90;85.80;;;;;;5013480;28;20037;-67
2021/12/25 07:48:04;;;;;;;9.77;7.22;;;6.90;85.70;;;;;;5007139;28;20045;-67
2021/12/25 07:50:31;;;;;;;10.30;7.65;;;6.90;85.70;;;;;;5012938;28;20040;-67
2021/12/25 07:52:58;;;;;;;10.95;7.13;;;6.90;85.60;;;;;;5006130;28;20143;-67
2021/12/25 07:55:24;;;;;;;17.67;11.77;;;7.00;85.50;;;;;;5011320;28;20684;-67
2021/12/25 07:57:50;;;;;;;13.23;8.68;;;7.00;85.50;;;;;;5008032;28;20041;-66
2021/12/25 08:00:16;;;;;;;11.48;7.40;;;7.00;85.60;;;;;;5006851;28;21206;-66
2021/12/25 08:02:45;;;;;;;9.35;7.13;;;7.00;85.70;;;;;;5006551;28;20386;-66
2021/12/25 08:05:12;;;;;;;9.30;6.78;;;7.00;86.20;;;;;;5018917;28;20124;-67
2021/12/25 08:07:38;;;;;;;9.60;7.10;;;7.10;87.40;;;;;;5031833;28;20324;-66
2021/12/25 08:10:17;;;;;;;8.00;5.40;;;7.10;86.90;;;;;;5029810;28;20715;-66
2021/12/25 08:12:53;;;;;;;7.55;4.72;;;7.10;87.30;;;;;;5028921;28;20396;-67
2021/12/25 08:15:21;;;;;;;6.70;4.93;;;7.20;87.60;;;;;;5028412;28;20109;-67
2021/12/25 08:17:47;;;;;;;7.63;4.82;;;7.30;87.40;;;;;;5030613;28;20091;-65
2021/12/25 08:20:14;;;;;;;8.50;6.03;;;7.40;87.40;;;;;;5028970;28;20490;-67
2021/12/25 08:22:40;;;;;;;6.35;4.70;;;7.40;87.50;;;;;;5031239;28;20191;-67
2021/12/25 08:25:07;;;;;;;6.65;5.00;;;7.50;87.60;;;;;;5031551;28;20099;-67
2021/12/25 08:27:33;;;;;;;11.48;7.95;;;7.50;87.50;;;;;;5034870;28;20029;-67
2021/12/25 08:29:59;;;;;;;10.63;6.43;;;7.50;87.50;;;;;;5031886;28;20083;-67
2021/12/25 08:32:25;;;;;;;7.75;5.22;;;7.60;87.40;;;;;;5032216;28;20083;-67
2021/12/25 08:34:51;;;;;;;7.65;5.10;;;7.60;87.30;;;;;;5025822;28;20041;-66
2021/12/25 08:37:21;;;;;;;7.95;5.32;;;7.70;87.30;;;;;;5029751;28;20048;-67
2021/12/25 08:39:47;;;;;;;7.13;4.88;;;7.80;87.30;;;;;;5033060;28;20034;-67
2021/12/25 08:42:12;;;;;;;7.57;5.18;;;7.80;87.30;;;;;;5032446;28;20036;-67
2021/12/25 08:47:07;;;;;;;6.60;5.07;;;7.90;87.20;;;;;;5025329;28;20397;-67
2021/12/25 08:49:34;;;;;;;8.43;5.20;;;7.90;87.20;;;;;;5036144;28;20033;-66
2021/12/25 08:52:21;;;;;;;8.45;6.10;;;7.90;87.20;;;;;;5034717;28;20030;-66
2021/12/25 08:54:50;;;;;;;9.45;6.60;;;8.00;87.20;;;;;;5028576;28;20283;-66
2021/12/25 08:57:19;;;;;;;8.98;6.15;;;8.00;87.10;;;;;;5034952;28;20044;-67
2021/12/25 08:59:45;;;;;;;5.85;4.90;;;8.10;87.20;;;;;;5024940;28;20061;-67
2021/12/25 09:02:14;;;;;;;8.50;6.03;;;8.10;88.10;;;;;;5024888;28;20033;-67
2021/12/25 09:04:43;;;;;;;8.32;5.97;;;8.20;87.40;;;;;;5024767;28;20025;-66
2021/12/25 09:07:10;;;;;;;8.00;6.38;;;8.20;88.30;;;;;;5022961;28;20517;-66
2021/12/25 09:09:36;;;;;;;8.43;5.70;;;8.20;87.50;;;;;;5021163;28;20091;-66
2021/12/25 09:12:04;;;;;;;9.50;5.80;;;8.30;87.50;;;;;;5016370;28;20037;-67
2021/12/25 09:14:30;;;;;;;8.18;5.80;;;8.40;87.60;;;;;;5022983;28;20045;-66
2021/12/25 09:16:55;;;;;;;9.82;5.72;;;8.40;88.50;;;;;;5032237;28;20047;-67
2021/12/25 09:19:21;;;;;;;8.30;5.53;;;8.50;87.70;;;;;;5031233;28;20046;-66
2021/12/25 09:21:47;;;;;;;7.60;5.57;;;8.50;87.60;;;;;;5019541;28;20061;-67
2021/12/25 09:24:15;;;;;;;8.88;5.90;;;8.60;87.60;;;;;;5023588;28;20033;-64
2021/12/25 09:26:41;;;;;;;8.18;5.72;;;8.60;87.30;;;;;;5023614;28;20086;-66
2021/12/25 09:29:06;;;;;;;8.40;5.88;;;8.60;87.20;;;;;;5032612;28;20033;-67
2021/12/25 09:31:32;;;;;;;9.80;6.32;;;8.70;87.10;;;;;;5025389;28;21816;-66
2021/12/25 09:33:58;;;;;;;9.63;5.65;;;8.70;87.00;;;;;;5026184;28;20045;-67
2021/12/25 09:36:24;;;;;;;9.25;5.57;;;8.80;87.00;;;;;;5028622;28;20496;-65
2021/12/25 09:38:50;;;;;;;9.25;6.28;;;8.80;87.00;;;;;;5031896;28;20036;-66
2021/12/25 09:41:18;;;;;;;10.20;6.97;;;8.80;86.90;;;;;;5033776;28;20041;-67
2021/12/25 09:43:48;;;;;;;11.95;7.45;;;8.90;86.90;;;;;;5027997;28;20044;-65
2021/12/25 09:46:16;;;;;;;12.85;8.43;;;8.90;86.90;;;;;;5032123;28;20083;-67
2021/12/25 09:48:43;;;;;;;12.27;8.93;;;8.90;86.70;;;;;;5031773;28;20106;-68
2021/12/25 09:51:09;;;;;;;9.45;6.55;;;9.00;86.70;;;;;;5030738;28;20071;-67
2021/12/25 09:53:35;;;;;;;9.00;6.18;;;9.10;86.60;;;;;;5035304;28;20469;-67
2021/12/25 09:56:02;;;;;;;7.63;5.80;;;9.10;86.60;;;;;;5028482;28;20034;-66
2021/12/25 09:58:28;;;;;;;7.30;5.97;;;9.00;86.40;;;;;;5022521;28;20193;-67
2021/12/25 10:00:57;;;;;;;9.35;6.10;;;9.10;86.40;;;;;;5032641;28;20629;-66
2021/12/25 10:03:23;;;;;;;9.15;5.70;;;9.10;86.20;;;;;;5030317;28;20160;-66
2021/12/25 10:05:51;;;;;;;8.30;6.18;;;9.10;86.10;;;;;;5029171;28;20421;-67
2021/12/25 10:08:18;;;;;;;11.23;6.43;;;9.10;86.00;;;;;;5022865;28;20068;-66
2021/12/25 10:10:51;;;;;;;9.52;6.00;;;9.20;86.00;;;;;;5028405;28;20036;-67
2021/12/25 10:13:39;;;;;;;7.40;5.65;;;9.20;86.00;;;;;;5021121;28;20029;-66
2021/12/25 10:16:23;;;;;;;6.53;5.53;;;9.20;86.80;;;;;;5023477;28;20601;-65
2021/12/25 10:18:50;;;;;;;10.10;7.40;;;9.20;86.00;;;;;;5028469;28;20095;-67
2021/12/25 10:21:17;;;;;;;9.90;6.60;;;9.20;86.00;;;;;;5028793;28;20037;-67
2021/12/25 10:23:43;;;;;;;7.88;6.05;;;9.20;86.10;;;;;;5033505;28;20061;-67
2021/12/25 10:26:09;;;;;;;7.45;5.82;;;9.20;86.30;;;;;;5035216;28;20571;-65
2021/12/25 10:28:38;;;;;;;9.23;6.60;;;9.20;86.30;;;;;;5035033;28;20029;-67
2021/12/25 10:31:06;;;;;;;8.07;5.82;;;9.20;86.20;;;;;;5033600;28;20512;-67
2021/12/25 10:33:44;;;;;;;9.82;5.90;;;9.30;86.20;;;;;;5035716;28;20030;-66
2021/12/25 10:36:22;;;;;;;8.55;6.00;;;9.30;86.30;;;;;;5035364;28;20116;-67
2021/12/25 10:39:01;;;;;;;7.25;5.53;;;9.30;86.20;;;;;;5033870;28;20041;-67
2021/12/25 10:41:27;;;;;;;7.88;5.50;;;9.40;86.40;;;;;;5034028;28;20037;-67
2021/12/25 10:44:16;;;;;;;7.70;5.15;;;9.30;86.30;;;;;;5031801;28;20107;-66
2021/12/25 10:46:58;;;;;;;7.45;5.50;;;9.40;86.60;;;;;;5032519;28;20040;-66
2021/12/25 10:49:30;;;;;;;6.93;5.55;;;9.40;86.50;;;;;;5034793;28;20087;-67
2021/12/25 10:52:11;;;;;;;7.90;6.13;;;9.50;86.40;;;;;;5031000;28;20521;-66
2021/12/25 10:54:40;;;;;;;7.65;5.50;;;9.50;86.40;;;;;;5033686;28;20082;-67
2021/12/25 10:57:06;;;;;;;8.32;6.00;;;9.50;86.20;;;;;;5033740;28;20037;-67
2021/12/25 10:59:46;;;;;;;7.70;6.00;;;9.50;86.00;;;;;;5034790;28;20055;-67
2021/12/25 11:02:28;;;;;;;8.60;6.45;;;9.60;86.20;;;;;;5033793;28;20022;-67
2021/12/25 11:04:54;;;;;;;9.38;6.47;;;9.60;86.20;;;;;;5032617;28;20040;-67
2021/12/25 11:07:20;;;;;;;8.80;5.97;;;9.60;86.00;;;;;;5032790;28;20512;-67
2021/12/25 11:10:12;;;;;;;7.85;5.15;;;9.60;86.00;;;;;;5037790;28;20057;-67
2021/12/25 11:12:38;;;;;;;6.93;5.40;;;9.70;86.10;;;;;;5034730;28;20104;-66
2021/12/25 11:15:11;;;;;;;8.10;5.60;;;9.70;85.90;;;;;;5040507;28;20033;-67
2021/12/25 11:17:39;;;;;;;7.85;5.57;;;9.70;85.90;;;;;;5040063;28;20033;-67
2021/12/25 11:20:06;;;;;;;9.57;5.85;;;9.70;85.90;;;;;;5039392;28;20068;-67
2021/12/25 11:22:53;;;;;;;7.45;5.47;;;9.70;85.90;;;;;;5035361;28;20037;-67
2021/12/25 11:25:25;;;;;;;10.15;5.90;;;9.80;85.90;;;;;;5038351;28;20431;-67
2021/12/25 11:27:52;;;;;;;7.78;5.60;;;9.80;85.80;;;;;;5040176;28;20037;-67
2021/12/25 11:30:21;;;;;;;8.15;6.10;;;9.90;85.70;;;;;;5039580;28;20049;-67
2021/12/25 11:32:48;;;;;;;7.35;5.85;;;9.90;85.50;;;;;;5038578;28;20037;-67
2021/12/25 11:35:15;;;;;;;7.78;6.53;;;9.90;85.50;;;;;;5037320;28;20588;-68
2021/12/25 11:37:42;;;;;;;9.20;7.30;;;9.90;85.50;;;;;;5039056;28;20033;-67
2021/12/25 11:40:10;;;;;;;9.38;6.93;;;9.90;85.30;;;;;;5039010;28;20029;-68
2021/12/25 11:42:45;;;;;;;10.25;7.50;;;9.80;85.20;;;;;;5038822;28;20400;-68
2021/12/25 11:45:20;;;;;;;9.88;7.55;;;9.80;85.30;;;;;;5037390;28;20075;-66
2021/12/25 11:47:53;;;;;;;9.07;7.38;;;9.80;85.40;;;;;;5037346;28;20526;-66
2021/12/25 11:50:41;;;;;;;10.27;7.32;;;9.80;85.30;;;;;;5038547;28;20033;-67
2021/12/25 11:53:24;;;;;;;9.45;7.28;;;9.70;85.30;;;;;;5018157;28;20037;-67
2021/12/25 11:58:42;;;;;;;12.73;8.35;;;9.70;85.30;;;;;;5015538;28;20536;-67
2021/12/25 12:01:34;;;;;;;12.23;8.63;;;9.70;85.40;;;;;;5017380;28;20103;-66
2021/12/25 12:03:59;;;;;;;10.73;8.07;;;9.70;85.50;;;;;;5017693;28;20034;-67
2021/12/25 12:06:44;;;;;;;11.73;8.68;;;9.70;85.50;;;;;;5017308;28;20041;-65
2021/12/25 12:09:21;;;;;;;12.55;8.73;;;9.70;85.50;;;;;;5018690;28;20038;-67
2021/12/25 12:12:09;;;;;;;14.73;9.52;;;9.70;85.40;;;;;;5010696;28;20037;-67
2021/12/25 12:14:36;;;;;;;10.93;7.97;;;9.80;85.50;;;;;;5018719;28;20025;-66
2021/12/25 12:17:25;;;;;;;12.05;8.35;;;9.70;85.40;;;;;;5016767;28;20080;-67
2021/12/25 12:19:53;;;;;;;10.82;7.53;;;9.80;85.50;;;;;;5010684;28;20088;-67
2021/12/25 12:27:56;;;;;;;11.43;7.25;;;9.80;85.40;;;;;;5038288;28;20040;-66
2021/12/25 12:30:31;;;;;;;21.65;11.13;;;9.80;85.40;;;;;;5037605;28;20052;-67
2021/12/25 12:33:23;;;;;;;13.05;8.05;;;9.80;85.30;;;;;;5038115;28;20034;-66
2021/12/25 12:35:53;;;;;;;8.70;7.03;;;9.90;85.30;;;;;;5036805;28;20441;-67
2021/12/25 12:38:47;;;;;;;11.77;8.52;;;9.90;85.10;;;;;;5038315;28;20037;-67
2021/12/25 12:41:16;;;;;;;11.95;8.35;;;9.90;85.10;;;;;;5036231;28;20112;-66
2021/12/25 12:43:59;;;;;;;8.82;6.90;;;9.90;85.00;;;;;;5036743;28;20041;-67
2021/12/25 12:46:48;;;;;;;7.50;5.68;;;9.90;85.20;;;;;;5037011;28;20029;-66
2021/12/25 12:49:28;;;;;;;6.60;5.55;;;9.90;85.20;;;;;;5036610;28;20036;-67
2021/12/25 12:52:15;;;;;;;7.07;5.13;;;9.90;85.10;;;;;;5036827;28;20038;-67
2021/12/25 12:54:57;;;;;;;6.63;5.40;;;9.90;85.20;;;;;;5036892;28;20028;-67
2021/12/25 12:57:45;;;;;;;6.53;5.00;;;9.90;85.10;;;;;;5037126;28;20032;-67
2021/12/25 13:00:15;;;;;;;7.47;5.38;;;9.90;85.20;;;;;;5037119;28;20075;-67
2021/12/25 13:02:46;;;;;;;7.30;5.28;;;9.90;85.10;;;;;;5037469;28;20385;-67
2021/12/25 13:05:12;;;;;;;7.85;6.22;;;9.90;85.20;;;;;;5035479;28;20036;-67
2021/12/25 13:07:42;;;;;;;7.00;5.75;;;9.80;85.00;;;;;;5036276;28;20564;-66
2021/12/25 13:10:19;;;;;;;8.55;5.97;;;9.90;85.10;;;;;;5036307;28;20038;-67
2021/12/25 13:12:47;;;;;;;13.10;8.63;;;9.90;85.10;;;;;;5031220;28;20068;-67
2021/12/25 13:15:32;;;;;;;9.02;7.13;;;9.80;85.00;;;;;;5035381;28;20041;-67
2021/12/25 13:18:00;;;;;;;14.98;10.18;;;9.90;85.10;;;;;;5035163;28;20041;-67
2021/12/25 13:20:44;;;;;;;17.35;12.10;;;9.90;85.00;;;;;;5035207;28;20051;-67
2021/12/25 13:23:22;;;;;;;11.85;8.10;;;9.80;84.90;;;;;;5037770;28;20032;-66
2021/12/25 13:25:54;;;;;;;7.60;6.05;;;9.90;84.90;;;;;;5033619;28;20949;-66
2021/12/25 13:28:22;;;;;;;8.75;7.10;;;9.90;84.90;;;;;;5035136;28;20531;-67
2021/12/25 13:30:57;;;;;;;8.73;6.80;;;9.90;84.90;;;;;;5036351;28;20036;-67
2021/12/25 13:33:25;;;;;;;7.05;5.65;;;9.80;84.90;;;;;;5037798;28;20047;-67
2021/12/25 13:36:07;;;;;;;8.45;6.18;;;9.90;84.90;;;;;;5035592;28;20037;-67
2021/12/25 13:38:54;;;;;;;7.50;5.70;;;9.90;85.00;;;;;;5036135;28;20488;-67
2021/12/25 13:41:35;;;;;;;8.82;6.10;;;9.80;85.00;;;;;;5035370;28;20605;-67
2021/12/25 13:44:27;;;;;;;12.65;7.50;;;9.90;84.90;;;;;;5035866;28;20311;-67
2021/12/25 13:47:03;;;;;;;12.15;7.75;;;9.90;85.00;;;;;;5032542;28;20060;-66
2021/12/25 13:49:32;;;;;;;9.50;7.07;;;9.80;84.80;;;;;;5036211;28;20033;-67
2021/12/25 13:52:05;;;;;;;10.10;6.75;;;9.80;84.90;;;;;;5037014;28;20033;-64
2021/12/25 13:54:32;;;;;;;12.48;9.18;;;9.80;84.90;;;;;;5036972;28;20522;-67
2021/12/25 13:56:59;;;;;;;8.68;5.93;;;9.80;84.90;;;;;;5034316;28;20040;-66
2021/12/25 13:59:25;;;;;;;10.35;7.47;;;9.80;84.90;;;;;;5036031;28;20507;-66
2021/12/25 14:02:13;;;;;;;11.65;7.50;;;9.80;84.90;;;;;;5035516;28;20115;-67
2021/12/25 14:04:41;;;;;;;8.75;6.50;;;9.80;84.80;;;;;;5035227;28;20029;-67
2021/12/25 14:07:08;;;;;;;8.13;5.88;;;9.80;84.80;;;;;;5036229;28;20420;-67
2021/12/25 14:09:34;;;;;;;8.85;6.80;;;9.80;84.80;;;;;;5036986;28;20041;-68
2021/12/25 14:12:01;;;;;;;9.25;6.32;;;9.80;85.00;;;;;;5029636;28;20126;-68
2021/12/25 14:14:28;;;;;;;8.35;6.00;;;9.80;84.90;;;;;;5035652;28;20040;-67
2021/12/25 14:16:55;;;;;;;8.10;5.75;;;9.80;84.90;;;;;;5036459;28;20120;-67
2021/12/25 14:19:26;;;;;;;7.75;5.93;;;9.80;85.00;;;;;;5035725;28;20037;-68
2021/12/25 14:22:04;;;;;;;7.35;5.47;;;9.80;85.10;;;;;;5036423;28;20405;-67
2021/12/25 14:24:43;;;;;;;9.10;5.50;;;9.80;85.30;;;;;;5035012;28;20061;-67
2021/12/25 14:27:17;;;;;;;9.90;5.88;;;9.80;85.30;;;;;;5034343;28;20052;-66
2021/12/25 14:29:44;;;;;;;8.85;6.72;;;9.80;85.30;;;;;;5034692;28;20025;-67
2021/12/25 14:32:24;;;;;;;8.30;6.20;;;9.80;85.30;;;;;;5036698;28;20111;-67
2021/12/25 14:34:50;;;;;;;7.35;5.43;;;9.80;85.40;;;;;;5036654;28;20258;-67
2021/12/25 14:37:34;;;;;;;9.27;7.85;;;9.80;85.30;;;;;;5035747;28;20029;-67
2021/12/25 14:40:18;;;;;;;9.27;7.95;;;9.80;85.30;;;;;;5035230;28;20087;-68
2021/12/25 14:42:47;;;;;;;8.35;6.38;;;9.90;85.40;;;;;;5033268;28;20167;-67
2021/12/25 14:45:14;;;;;;;9.43;7.10;;;9.90;85.20;;;;;;5038206;28;20029;-67